createdAt,value
2023-04-05T00:02:11.050Z,-0.77
2023-04-05T00:04:47.248Z,-0.80
2023-04-05T00:07:14.957Z,-1.09
2023-04-05T00:09:44.126Z,-1.07
2023-04-05T00:12:12.040Z,-1.37
2023-04-05T00:14:39.756Z,-1.87
2023-04-05T00:17:08.934Z,-1.63
2023-04-05T00:19:38.209Z,-1.36
2023-04-05T00:22:06.020Z,-1.00
2023-04-05T00:24:38.960Z,-0.89
2023-04-05T00:27:08.041Z,-0.68
2023-04-05T00:29:36.153Z,-0.66
2023-04-05T00:32:04.749Z,-0.73
2023-04-05T00:34:33.707Z,-0.77
2023-04-05T00:37:01.596Z,-0.78
2023-04-05T00:39:29.363Z,-0.60
2023-04-05T00:41:57.201Z,-0.41
2023-04-05T00:44:26.734Z,-0.60
2023-04-05T00:46:54.431Z,-0.75
2023-04-05T00:49:22.174Z,-0.73
2023-04-05T00:51:49.869Z,-0.70
2023-04-05T00:54:18.684Z,-0.86
2023-04-05T00:56:46.636Z,-0.89
2023-04-05T00:59:14.417Z,-0.99
2023-04-05T01:01:44.081Z,-0.84
2023-04-05T01:04:11.968Z,-1.01
2023-04-05T01:07:09.132Z,-1.17
2023-04-05T01:09:43.739Z,-1.67
2023-04-05T01:12:11.543Z,-1.49
2023-04-05T01:14:49.239Z,-1.20
2023-04-05T01:17:22.267Z,-1.06
2023-04-05T01:19:53.320Z,-0.86
2023-04-05T01:22:45.460Z,-0.87
2023-04-05T01:25:38.789Z,-0.85
2023-04-05T01:28:41.812Z,-0.89
2023-04-05T01:31:14.624Z,-0.96
2023-04-05T01:33:45.641Z,-0.78
2023-04-05T01:36:17.965Z,-0.71
2023-04-05T01:38:46.822Z,-0.72
2023-04-05T01:41:14.752Z,-0.72
2023-04-05T01:43:42.558Z,-0.70
2023-04-05T01:46:11.805Z,-0.59
2023-04-05T01:48:39.568Z,-0.79
2023-04-05T01:51:09.781Z,-0.80
2023-04-05T01:53:37.554Z,-1.16
2023-04-05T01:56:06.009Z,-0.58
2023-04-05T01:58:36.108Z,-0.52
2023-04-05T02:01:03.910Z,-0.56
2023-04-05T02:03:33.098Z,-0.55
2023-04-05T02:06:01.776Z,-0.67
2023-04-05T02:08:29.499Z,-0.28
2023-04-05T02:10:57.286Z,-0.41
2023-04-05T02:13:25.844Z,-0.59
2023-04-05T02:15:53.693Z,-0.12
2023-04-05T02:18:22.349Z,-0.02
2023-04-05T02:20:52.118Z,-0.83
2023-04-05T02:23:20.238Z,-1.03
2023-04-05T02:25:48.104Z,-1.42
2023-04-05T02:28:15.831Z,-1.16
2023-04-05T02:30:43.831Z,-0.94
2023-04-05T02:33:12.642Z,-0.59
2023-04-05T02:35:40.425Z,-0.54
2023-04-05T02:38:09.637Z,-0.37
2023-04-05T02:40:37.672Z,-0.01
2023-04-05T02:43:07.396Z,-0.21
2023-04-05T02:45:35.163Z,0.11
2023-04-05T02:48:03.350Z,-0.42
2023-04-05T02:50:32.811Z,-0.13
2023-04-05T02:53:00.829Z,-0.18
2023-04-05T02:55:34.123Z,-0.18
2023-04-05T02:58:03.066Z,-0.25
2023-04-05T03:00:38.420Z,-0.17
2023-04-05T03:03:06.860Z,-0.40
2023-04-05T03:05:39.068Z,-0.27
2023-04-05T03:08:07.221Z,-0.86
2023-04-05T03:10:39.103Z,-0.59
2023-04-05T03:13:14.761Z,-0.21
2023-04-05T03:15:43.227Z,-0.08
2023-04-05T03:18:14.129Z,-0.12
2023-04-05T03:20:45.930Z,-0.81
2023-04-05T03:23:19.494Z,-0.47
2023-04-05T03:25:52.717Z,-0.09
2023-04-05T03:28:23.560Z,-0.60
2023-04-05T03:30:53.647Z,-0.91
2023-04-05T03:33:22.666Z,-0.51
2023-04-05T03:35:52.027Z,-0.25
2023-04-05T03:38:20.568Z,-0.19
2023-04-05T03:41:13.714Z,-0.25
2023-04-05T03:43:42.229Z,-0.38
2023-04-05T03:46:09.994Z,-0.46
2023-04-05T03:48:40.914Z,-0.18
2023-04-05T03:51:10.395Z,-0.16
2023-04-05T03:53:38.098Z,-0.09
2023-04-05T03:56:06.398Z,-0.09
2023-04-05T03:58:54.302Z,-0.09
2023-04-05T04:01:27.079Z,-0.04
2023-04-05T04:03:55.128Z,-0.06
2023-04-05T04:06:26.804Z,-0.16
2023-04-05T04:08:54.542Z,-0.14
2023-04-05T04:11:22.237Z,-0.08
2023-04-05T04:13:50.228Z,-0.07
2023-04-05T04:16:28.855Z,-0.15
2023-04-05T04:19:19.539Z,-0.41
2023-04-05T04:22:04.568Z,-0.52
2023-04-05T04:24:51.014Z,-0.57
2023-04-05T04:27:39.100Z,-0.53
2023-04-05T04:30:15.058Z,-0.53
2023-04-05T04:32:52.844Z,-0.54
2023-04-05T04:35:46.759Z,-0.78
2023-04-05T04:38:34.977Z,-0.89
2023-04-05T04:41:26.966Z,-0.73
2023-04-05T04:44:14.871Z,-0.42
2023-04-05T04:47:01.206Z,-0.25
2023-04-05T04:49:46.985Z,-0.54
2023-04-05T04:52:14.697Z,-0.32
2023-04-05T04:54:43.073Z,-0.38
2023-04-05T04:57:11.192Z,-0.33
2023-04-05T04:59:38.954Z,-0.17
2023-04-05T05:02:08.708Z,-1.07
2023-04-05T05:04:36.640Z,-1.35
2023-04-05T05:07:05.902Z,-1.49
2023-04-05T05:09:34.764Z,-1.01
2023-04-05T05:12:02.471Z,-0.51
2023-04-05T05:14:30.237Z,-0.55
2023-04-05T05:16:59.152Z,-0.99
2023-04-05T05:19:30.028Z,-0.83
2023-04-05T05:21:58.955Z,-0.44
2023-04-05T05:24:28.165Z,-0.29
2023-04-05T05:26:55.938Z,-0.67
2023-04-05T05:29:23.666Z,-0.59
2023-04-05T05:31:51.408Z,-0.39
2023-04-05T05:34:19.395Z,-0.30
2023-04-05T05:36:51.582Z,-0.19
2023-04-05T05:39:20.600Z,-0.31
2023-04-05T05:41:49.979Z,-0.06
2023-04-05T05:44:17.740Z,0.01
2023-04-05T05:46:45.462Z,-0.02
2023-04-05T05:49:13.303Z,-0.04
2023-04-05T05:51:40.987Z,-0.58
2023-04-05T05:54:08.697Z,-0.83
2023-04-05T05:56:36.412Z,-0.83
2023-04-05T05:59:05.691Z,-0.39
2023-04-05T06:01:34.599Z,-0.45
2023-04-05T06:04:04.732Z,-0.39
2023-04-05T06:06:35.065Z,-0.01
2023-04-05T06:09:04.153Z,0.23
2023-04-05T06:11:31.858Z,-0.19
2023-04-05T06:13:59.548Z,-0.44
2023-04-05T06:16:29.241Z,-0.51
2023-04-05T06:19:00.313Z,-0.55
2023-04-05T06:21:28.192Z,-0.60
2023-04-05T06:23:56.744Z,-0.20
2023-04-05T06:26:28.673Z,-0.36
2023-04-05T06:28:56.493Z,-0.35
2023-04-05T06:31:29.092Z,-0.29
2023-04-05T06:33:56.778Z,0.35
2023-04-05T06:36:26.869Z,0.06
2023-04-05T06:38:55.916Z,-0.12
2023-04-05T06:41:23.654Z,-0.30
2023-04-05T06:43:51.388Z,-0.51
2023-04-05T06:46:19.184Z,-0.30
2023-04-05T06:48:49.888Z,0.12
2023-04-05T06:51:17.925Z,0.37
2023-04-05T06:53:45.794Z,0.34
2023-04-05T06:56:13.499Z,0.48
2023-04-05T06:58:41.377Z,0.53
2023-04-05T07:01:09.133Z,0.33
2023-04-05T07:03:36.961Z,0.39
2023-04-05T07:06:06.423Z,0.86
2023-04-05T07:08:34.273Z,1.60
2023-04-05T07:11:02.006Z,0.42
2023-04-05T07:13:29.700Z,0.54
2023-04-05T07:16:00.836Z,0.80
2023-04-05T07:18:29.916Z,0.92
2023-04-05T07:21:00.202Z,1.22
2023-04-05T07:23:29.600Z,1.04
2023-04-05T07:26:04.499Z,1.23
2023-04-05T07:28:33.021Z,1.58
2023-04-05T07:31:00.952Z,1.93
2023-04-05T07:33:28.841Z,2.33
2023-04-05T07:35:56.996Z,2.51
2023-04-05T07:38:24.999Z,1.47
2023-04-05T07:40:54.045Z,1.49
2023-04-05T07:43:21.828Z,2.16
2023-04-05T07:45:49.566Z,2.07
2023-04-05T07:48:17.263Z,1.63
2023-04-05T07:50:47.701Z,2.24
2023-04-05T07:53:15.887Z,2.30
2023-04-05T07:55:43.966Z,2.22
2023-04-05T07:58:12.996Z,2.51
2023-04-05T08:00:41.334Z,1.74
2023-04-05T08:03:09.265Z,2.51
2023-04-05T08:05:37.019Z,2.11
2023-04-05T08:08:04.713Z,2.29
2023-04-05T08:10:33.094Z,1.96
2023-04-05T08:13:00.813Z,2.36
2023-04-05T08:15:29.825Z,2.72
2023-04-05T08:17:57.556Z,3.39
2023-04-05T08:20:25.509Z,2.86
2023-04-05T08:22:53.178Z,3.70
2023-04-05T08:25:20.866Z,3.06
2023-04-05T08:27:48.529Z,3.98
2023-04-05T08:30:16.653Z,3.76
2023-04-05T08:32:45.730Z,3.66
2023-04-05T08:35:13.453Z,3.74
2023-04-05T08:37:41.152Z,4.93
2023-04-05T08:40:09.692Z,4.30
2023-04-05T08:42:38.179Z,5.13
2023-04-05T08:45:06.870Z,3.93
2023-04-05T08:47:34.703Z,3.45
2023-04-05T08:50:05.307Z,3.41
2023-04-05T08:52:33.331Z,3.54
2023-04-05T08:55:01.158Z,4.26
2023-04-05T08:57:28.902Z,4.28
2023-04-05T08:59:56.684Z,4.22
2023-04-05T09:02:24.603Z,4.44
2023-04-05T09:04:52.386Z,4.50
2023-04-05T09:07:21.586Z,4.75
2023-04-05T09:09:50.825Z,4.49
2023-04-05T09:12:18.571Z,3.53
2023-04-05T09:14:46.279Z,3.79
2023-04-05T09:17:14.106Z,3.99
2023-04-05T09:19:43.636Z,3.44
2023-04-05T09:22:11.807Z,3.72
2023-04-05T09:24:43.535Z,3.74
2023-04-05T09:27:12.075Z,4.10
2023-04-05T09:29:40.969Z,4.48
2023-04-05T09:32:10.164Z,4.82
2023-04-05T09:34:38.464Z,4.24
2023-04-05T09:37:14.273Z,4.04
2023-04-05T09:39:43.654Z,3.62
2023-04-05T09:42:13.065Z,3.66
2023-04-05T09:44:51.174Z,3.90
2023-04-05T09:47:19.344Z,4.10
2023-04-05T09:49:47.740Z,4.35
2023-04-05T09:52:20.080Z,4.11
2023-04-05T09:54:49.572Z,4.04
2023-04-05T09:57:18.142Z,3.56
2023-04-05T09:59:46.271Z,3.74
2023-04-05T10:02:14.107Z,3.71
2023-04-05T10:04:42.442Z,4.42
2023-04-05T10:07:11.268Z,3.86
2023-04-05T10:09:39.072Z,3.64
2023-04-05T10:12:08.827Z,4.07
2023-04-05T10:14:37.015Z,3.90
2023-04-05T10:17:10.261Z,3.71
2023-04-05T10:19:58.012Z,4.33
2023-04-05T10:22:29.267Z,3.97
2023-04-05T10:25:00.955Z,3.88
2023-04-05T10:27:31.874Z,3.62
2023-04-05T10:30:05.019Z,3.90
2023-04-05T10:32:40.956Z,3.79
2023-04-05T10:35:11.051Z,4.58
2023-04-05T10:37:43.558Z,5.16
2023-04-05T10:40:11.577Z,5.10
2023-04-05T10:42:43.948Z,5.22
2023-04-05T10:45:15.716Z,4.77
2023-04-05T10:47:45.971Z,5.13
2023-04-05T10:50:15.607Z,6.08
2023-04-05T10:52:43.510Z,5.17
2023-04-05T10:55:11.317Z,5.52
2023-04-05T10:57:39.034Z,5.38
2023-04-05T11:00:09.657Z,5.59
2023-04-05T11:02:37.432Z,4.71
2023-04-05T11:05:05.693Z,4.88
2023-04-05T11:07:43.764Z,4.47
2023-04-05T11:10:17.202Z,4.05
2023-04-05T11:13:03.828Z,4.51
2023-04-05T11:15:33.486Z,4.51
2023-04-05T11:18:09.570Z,4.55
2023-04-05T11:20:47.706Z,4.59
2023-04-05T11:23:16.408Z,4.41
2023-04-05T11:25:48.147Z,4.40
2023-04-05T11:28:26.825Z,4.52
2023-04-05T11:30:58.697Z,4.15
2023-04-05T11:33:40.118Z,4.16
2023-04-05T11:36:08.770Z,4.41
2023-04-05T11:38:36.555Z,4.77
2023-04-05T11:41:08.438Z,4.40
2023-04-05T11:43:38.363Z,4.01
2023-04-05T11:46:07.569Z,4.23
2023-04-05T11:48:36.481Z,4.29
2023-04-05T11:51:08.591Z,4.86
2023-04-05T11:53:36.404Z,4.33
2023-04-05T11:56:08.354Z,4.53
2023-04-05T11:58:36.198Z,5.17
2023-04-05T12:01:04.644Z,5.58
2023-04-05T12:03:34.062Z,5.62
2023-04-05T12:06:02.470Z,5.42
2023-04-05T12:08:39.688Z,5.73
2023-04-05T12:11:08.370Z,4.44
2023-04-05T12:13:36.332Z,4.48
2023-04-05T12:16:04.870Z,4.94
2023-04-05T12:18:34.831Z,4.80
2023-04-05T12:21:04.953Z,5.33
2023-04-05T12:23:34.228Z,5.02
2023-04-05T12:26:01.922Z,5.15
2023-04-05T12:28:50.373Z,5.05
2023-04-05T12:31:18.070Z,5.46
2023-04-05T12:33:47.148Z,4.93
2023-04-05T12:36:15.022Z,5.92
2023-04-05T12:38:42.767Z,6.34
2023-04-05T12:41:10.701Z,6.30
2023-04-05T12:43:41.839Z,6.75
2023-04-05T12:46:12.541Z,6.27
2023-04-05T12:48:40.275Z,6.84
2023-04-05T12:51:17.126Z,6.15
2023-04-05T12:53:48.228Z,6.05
2023-04-05T12:56:16.575Z,6.25
2023-04-05T12:58:44.380Z,5.98
2023-04-05T13:05:26.111Z,6.72
2023-04-05T13:07:55.485Z,7.76
2023-04-05T13:10:24.207Z,7.07
2023-04-05T13:12:51.882Z,7.27
2023-04-05T13:15:19.522Z,6.83
2023-04-05T13:17:49.710Z,7.60
2023-04-05T13:20:18.543Z,6.18
2023-04-05T13:22:46.349Z,5.53
2023-04-05T13:25:15.444Z,7.07
2023-04-05T13:27:43.187Z,6.61
2023-04-05T13:30:11.667Z,6.17
2023-04-05T13:32:39.501Z,6.94
2023-04-05T13:35:07.954Z,7.55
2023-04-05T13:37:35.705Z,7.92
2023-04-05T13:40:03.445Z,8.30
2023-04-05T13:42:32.469Z,8.38
2023-04-05T13:45:00.572Z,8.19
2023-04-05T13:47:28.493Z,8.09
2023-04-05T13:49:56.457Z,8.17
2023-04-05T13:52:25.815Z,9.07
2023-04-05T13:55:01.810Z,8.67
2023-04-05T13:57:32.912Z,8.52
2023-04-05T14:00:00.870Z,7.92
2023-04-05T14:02:28.979Z,7.83
2023-04-05T14:04:56.829Z,8.23
2023-04-05T14:07:24.662Z,8.84
2023-04-05T14:14:05.784Z,8.35
2023-04-05T14:16:33.511Z,7.89
2023-04-05T14:19:01.177Z,7.69
2023-04-05T14:21:28.801Z,7.78
2023-04-05T14:23:57.988Z,7.58
2023-04-05T14:26:26.642Z,7.37
2023-04-05T14:28:54.624Z,7.46
2023-04-05T14:31:25.210Z,7.88
2023-04-05T14:33:53.015Z,7.33
2023-04-05T14:36:20.859Z,7.03
2023-04-05T14:38:48.761Z,7.52
2023-04-05T14:41:16.623Z,6.63
2023-04-05T14:43:44.359Z,7.56
2023-04-05T14:46:12.079Z,7.30
2023-04-05T14:48:41.136Z,7.39
2023-04-05T14:51:09.083Z,6.76
2023-04-05T14:53:36.977Z,6.57
2023-04-05T14:56:04.881Z,6.75
2023-04-05T14:58:34.101Z,7.07
2023-04-05T15:01:01.934Z,6.74
2023-04-05T15:03:31.036Z,7.53
2023-04-05T15:06:00.373Z,6.99
2023-04-05T15:08:28.101Z,8.40
2023-04-05T15:10:56.289Z,7.62
2023-04-05T15:13:26.208Z,7.50
2023-04-05T15:15:53.922Z,7.53
2023-04-05T15:18:21.663Z,7.30
2023-04-05T15:20:49.386Z,7.13
2023-04-05T15:23:18.505Z,7.32
2023-04-05T15:25:46.698Z,7.04
2023-04-05T15:28:14.474Z,6.79
2023-04-05T15:30:43.358Z,6.40
2023-04-05T15:33:11.439Z,6.44
2023-04-05T15:35:39.211Z,7.57
2023-04-05T15:38:07.107Z,6.65
2023-04-05T15:40:36.405Z,6.73
2023-04-05T15:43:04.134Z,6.64
2023-04-05T15:45:31.836Z,6.44
2023-04-05T15:47:59.696Z,6.66
2023-04-05T15:50:27.681Z,6.45
2023-04-05T15:52:55.641Z,6.39
2023-04-05T15:55:23.316Z,6.48
2023-04-05T15:57:54.630Z,6.40
2023-04-05T16:00:23.088Z,6.59
2023-04-05T16:02:52.941Z,6.24
2023-04-05T16:05:22.533Z,6.07
2023-04-05T16:07:50.409Z,6.56
2023-04-05T16:10:18.241Z,5.99
2023-04-05T16:12:45.979Z,6.28
2023-04-05T16:15:15.098Z,5.96
2023-04-05T16:17:42.928Z,5.94
2023-04-05T16:20:11.896Z,5.95
2023-04-05T16:22:39.881Z,5.86
2023-04-05T16:25:08.037Z,5.84
2023-04-05T16:27:37.081Z,5.87
2023-04-05T16:30:05.862Z,5.88
2023-04-05T16:32:34.973Z,5.95
2023-04-05T16:35:02.699Z,5.65
2023-04-05T16:37:30.457Z,5.68
2023-04-05T16:39:58.341Z,5.74
2023-04-05T16:42:26.293Z,5.61
2023-04-05T16:44:53.991Z,5.88
2023-04-05T16:47:21.713Z,5.59
2023-04-05T16:49:51.096Z,5.63
2023-04-05T16:52:18.825Z,5.68
2023-04-05T16:54:46.624Z,5.59
2023-04-05T16:57:14.759Z,5.85
2023-04-05T16:59:42.613Z,5.77
2023-04-05T17:02:10.520Z,5.73
2023-04-05T17:04:38.462Z,5.59
2023-04-05T17:07:07.900Z,5.56
2023-04-05T17:09:35.752Z,5.58
2023-04-05T17:12:04.154Z,5.34
2023-04-05T17:14:32.117Z,5.18
2023-04-05T17:16:59.887Z,5.17
2023-04-05T17:19:27.667Z,5.06
2023-04-05T17:21:55.434Z,5.04
2023-04-05T17:24:26.267Z,5.12
2023-04-05T17:26:54.091Z,5.08
2023-04-05T17:29:21.843Z,5.03
2023-04-05T17:31:49.674Z,5.05
2023-04-05T17:34:17.426Z,4.83
2023-04-05T17:36:45.897Z,4.77
2023-04-05T17:39:13.662Z,4.66
2023-04-05T17:41:42.762Z,4.52
2023-04-05T17:44:10.578Z,4.50
2023-04-05T17:46:44.531Z,4.34
2023-04-05T17:49:16.412Z,4.15
2023-04-05T17:51:44.198Z,4.02
2023-04-05T17:54:12.493Z,3.98
2023-04-05T17:56:40.472Z,3.89
2023-04-05T17:59:09.878Z,3.82
2023-04-05T18:01:38.062Z,3.76
2023-04-05T18:04:06.628Z,3.68
2023-04-05T18:06:34.692Z,3.68
2023-04-05T18:09:03.359Z,3.59
2023-04-05T18:11:31.828Z,3.47
2023-04-05T18:13:59.554Z,3.32
2023-04-05T18:16:29.337Z,3.38
2023-04-05T18:18:57.404Z,3.37
2023-04-05T18:21:25.947Z,3.35
2023-04-05T18:23:53.939Z,3.23
2023-04-05T18:26:21.723Z,3.28
2023-04-05T18:28:49.455Z,3.26
2023-04-05T18:31:17.273Z,3.02
2023-04-05T18:33:46.346Z,3.03
2023-04-05T18:36:14.161Z,3.04
2023-04-05T18:38:41.943Z,2.99
2023-04-05T18:41:10.966Z,2.86
2023-04-05T18:43:38.785Z,2.80
2023-04-05T18:46:06.653Z,2.66
2023-04-05T18:48:38.719Z,2.82
2023-04-05T18:51:07.853Z,2.50
2023-04-05T18:53:36.100Z,2.43
2023-04-05T18:56:03.827Z,2.33
2023-04-05T18:58:31.553Z,2.26
2023-04-05T19:00:59.691Z,2.31
2023-04-05T19:03:27.842Z,2.41
2023-04-05T19:05:55.706Z,2.33
2023-04-05T19:08:26.092Z,2.32
2023-04-05T19:10:53.927Z,2.79
2023-04-05T19:13:21.621Z,2.77
2023-04-05T19:15:49.413Z,2.35
2023-04-05T19:18:17.151Z,2.28
2023-04-05T19:20:44.936Z,1.96
2023-04-05T19:23:12.642Z,2.25
2023-04-05T19:25:41.751Z,2.36
2023-04-05T19:28:09.449Z,2.67
2023-04-05T19:30:40.207Z,2.44
2023-04-05T19:33:08.074Z,2.15
2023-04-05T19:35:36.580Z,2.20
2023-04-05T19:38:04.389Z,2.49
2023-04-05T19:40:32.206Z,2.41
2023-04-05T19:43:01.999Z,2.44
2023-04-05T19:45:30.457Z,2.04
2023-04-05T19:48:01.201Z,1.80
2023-04-05T19:50:46.725Z,1.80
2023-04-05T19:53:32.929Z,2.15
2023-04-05T19:56:00.770Z,2.46
2023-04-05T19:58:29.812Z,2.50
2023-04-05T20:00:57.564Z,2.52
2023-04-05T20:03:29.533Z,2.42
2023-04-05T20:06:08.105Z,2.44
2023-04-05T20:08:36.900Z,2.31
2023-04-05T20:11:10.035Z,2.03
2023-04-05T20:13:46.279Z,2.07
2023-04-05T20:16:14.868Z,1.84
2023-04-05T20:18:46.169Z,2.14
2023-04-05T20:21:16.357Z,2.03
2023-04-05T20:23:44.750Z,1.95
2023-04-05T20:26:14.300Z,1.76
2023-04-05T20:28:43.181Z,1.87
2023-04-05T20:31:13.772Z,1.86
2023-04-05T20:33:51.338Z,1.84
2023-04-05T20:36:20.018Z,1.94
2023-04-05T20:38:48.019Z,2.25
2023-04-05T20:41:17.637Z,2.53
2023-04-05T20:43:45.498Z,2.82
2023-04-05T20:46:14.742Z,3.20
2023-04-05T20:48:42.737Z,2.84
2023-04-05T20:51:14.003Z,2.45
2023-04-05T20:53:41.820Z,2.34
2023-04-05T20:56:10.471Z,2.42
2023-04-05T20:58:38.931Z,2.42
2023-04-05T21:01:07.204Z,2.40
2023-04-05T21:03:37.405Z,2.57
2023-04-05T21:06:06.322Z,2.55
2023-04-05T21:08:34.038Z,2.71
2023-04-05T21:11:01.830Z,2.49
2023-04-05T21:13:29.578Z,2.56
2023-04-05T21:15:57.550Z,2.43
2023-04-05T21:18:25.701Z,2.28
2023-04-05T21:20:55.022Z,2.25
2023-04-05T21:23:23.499Z,2.18
2023-04-05T21:25:51.223Z,2.43
2023-04-05T21:28:18.932Z,2.69
2023-04-05T21:30:46.731Z,2.77
2023-04-05T21:33:14.492Z,2.84
2023-04-05T21:35:42.259Z,2.89
2023-04-05T21:38:12.470Z,2.77
2023-04-05T21:40:42.486Z,2.88
2023-04-05T21:43:10.260Z,2.62
2023-04-05T21:45:37.970Z,2.48
2023-04-05T21:48:06.101Z,2.78
2023-04-05T21:50:33.851Z,2.90
2023-04-05T21:53:01.663Z,3.21
2023-04-05T21:55:30.741Z,3.36
2023-04-05T21:57:58.429Z,2.93
2023-04-05T22:00:26.413Z,3.01
2023-04-05T22:02:54.261Z,3.11
2023-04-05T22:05:34.049Z,3.12
2023-04-05T22:08:05.943Z,3.03
2023-04-05T22:10:35.502Z,2.94
2023-04-05T22:13:03.246Z,2.94
2023-04-05T22:15:30.958Z,2.79
2023-04-05T22:17:58.798Z,2.76
2023-04-05T22:20:26.623Z,2.98
2023-04-05T22:22:54.324Z,2.80
2023-04-05T22:25:22.074Z,2.86
2023-04-05T22:27:51.156Z,2.62
2023-04-05T22:30:19.246Z,2.06
2023-04-05T22:32:46.967Z,2.05
2023-04-05T22:35:14.735Z,2.06
2023-04-05T22:37:42.533Z,1.81
2023-04-05T22:40:11.269Z,2.08
2023-04-05T22:42:41.911Z,2.38
2023-04-05T22:45:11.981Z,2.52
2023-04-05T22:47:39.694Z,2.88
2023-04-05T22:50:08.754Z,2.47
2023-04-05T22:52:36.488Z,2.37
2023-04-05T22:55:05.626Z,2.25
2023-04-05T22:57:33.429Z,2.16
2023-04-05T23:00:01.155Z,2.27
2023-04-05T23:02:30.580Z,2.35
2023-04-05T23:04:58.431Z,2.44
2023-04-05T23:07:26.503Z,2.63
2023-04-05T23:09:54.257Z,2.58
2023-04-05T23:12:22.559Z,2.27
2023-04-05T23:14:50.944Z,2.41
2023-04-05T23:17:18.643Z,2.43
2023-04-05T23:19:47.735Z,2.49
2023-04-05T23:22:15.425Z,2.47
2023-04-05T23:24:43.130Z,2.43
2023-04-05T23:27:10.969Z,2.39
2023-04-05T23:29:38.767Z,2.49
2023-04-05T23:32:12.531Z,2.42
2023-04-05T23:34:40.547Z,2.34
2023-04-05T23:37:09.552Z,2.52
2023-04-05T23:39:37.283Z,2.75
2023-04-05T23:42:05.125Z,2.67
2023-04-05T23:44:32.821Z,2.83
2023-04-05T23:47:00.514Z,2.82
2023-04-05T23:49:28.325Z,2.55
2023-04-05T23:51:56.197Z,2.65
2023-04-05T23:54:25.603Z,2.61
2023-04-05T23:56:53.865Z,2.63
2023-04-05T23:59:21.665Z,2.72
